METAR Data
IDs: Format: Raw Decoded Include TAF

Data at: 0941 UTC 10 Dec 2022

METAR for:VTUO (Buriram Arpt, 31, TH)
Text:VTUO 100900Z 06005KT 020V110 9999 FEW040 30/21 Q1009 NOSIG
Temperature: 30.0°C ( 86°F)
Dewpoint: 21.0°C ( 70°F) [RH = 59%]
Pressure (altimeter):29.79 inches Hg (1009.0 mb)
Winds:from the ENE (60 degrees) at 6 MPH (5 knots; 2.6 m/s)
Visibility:6 or more sm (10+ km)
Ceiling:at least 12,000 feet AGL
Clouds: few clouds at 4000 feet AGL